INFORMACIÓN METAR y TAF
METAR FOR EDHL
ADDS - METARS form results

(0613 UTC 20 January 2020)
Data provider http://aviationweather.gov/metar/data/
 
METAR text: EDHL 200550Z 26003KT 9999 BKN009 03/03 Q1044
Conditions at: EDHL (LUEBECK/BLANKENS, DE) observed 0550 UTC 20 January 2020
Temperature: 3.0°C (37°F)
Dewpoint: 3.0°C (37°F) [RH = 100%]
Pressure (altimeter): 30.83 inches Hg (1044.0 mb)
Winds: from the W (260 degrees) at 3 MPH (3 knots; 1.5 m/s)
Visibility: 6 or more miles (10+ km)
Ceiling: 900 feet AGL
Clouds: broken clouds at 900 feet AGL
Weather: no significant weather observed at this time

MAPA DE AEROPUERTO

INFORMACIÓN DE PISTA
Pista 07 Longitud 6896 ft Ancho 197 ft
Elevación 53 ft Umbral desplazado 984 ft Rumbo de pista 72
Pista 25 Longitud 6896 ft Ancho 197 ft
Elevación 47 ft Umbral desplazado 0 ft Rumbo de pista 252

FRECUANCIAS DEL AEROPUERTO
Tipo AFIS Nombre BREMEN INF Frecuencia 125.1 MHZ
Tipo ATIS Nombre ATIS Frecuencia 119.925 MHZ
Tipo GND Nombre GND Frecuencia 121.775 MHZ
Tipo INFO Nombre INFO Frecuencia 128.7 MHZ
Tipo RDR Nombre BREMEN RAD Frecuencia 124.225 MHZ
Tipo TWR Nombre TWR Frecuencia 128.7 MHZ

RADIO AYUDAS DEL AEROPUERTO
Tipo VOR Nombre Lubeck Frecuencia 110600 KHZ
Tipo DME Nombre Lubeck Blankensee Frecuencia 115650 KHZ
Tipo NDB Nombre Lubeck Blankensee Frecuencia 394 KHZ